Time;durP1;ratioP1;P1;durP2;ratioP2;P2;SDS_P1;SDS_P2;PMS_P1;PMS_P2;Temp;Humidity;BMP_temperature;BMP_pressure;BME280_temperature;BME280_humidity;BME280_pressure;Samples;Min_cycle;Max_cycle;Signal;HPM_P1;HPM_P2
2022/07/09 07:12:45;;;;;;;;;;;;;;;22.70;46.38;100205.88;4436279;23;19921;-73
2022/07/09 07:15:14;;;;;;;;;;;;;;;22.74;46.10;100202.22;4994821;28;19922;-74
2022/07/09 07:17:42;;;;;;;;;;;;;;;22.87;46.06;100204.22;4994795;28;19921;-73
2022/07/09 07:20:11;;;;;;;;;;;;;;;22.93;45.44;100195.31;4994741;28;20004;-75
2022/07/09 07:22:40;;;;;;;;;;;;;;;22.90;45.18;100203.25;4994461;28;19925;-76
2022/07/09 07:25:08;;;;;;;;;;;;;;;22.96;45.23;100195.19;4994873;28;19922;-73
2022/07/09 07:27:37;;;;;;;;;;;;;;;22.96;44.92;100190.81;4994478;28;20005;-76
2022/07/09 07:30:08;;;;;;;;;;;;;;;22.98;45.06;100193.38;4994604;28;19976;-77
2022/07/09 07:32:36;;;;;;;;;;;;;;;23.11;46.15;100189.31;4994444;28;20045;-73
2022/07/09 07:35:05;;;;;;;;;;;;;;;23.27;45.98;100195.56;4994549;28;20268;-73
2022/07/09 07:37:34;;;;;;;;;;;;;;;23.36;45.58;100189.97;4994450;28;19928;-73
2022/07/09 07:40:02;;;;;;;;;;;;;;;23.31;44.31;100197.94;4994449;28;19937;-72
2022/07/09 07:42:38;;;;;;;;;;;;;;;23.21;43.86;100195.81;4994347;28;19922;-76
2022/07/09 07:45:09;;;;;;;;;;;;;;;23.21;44.82;100190.59;4994036;28;19921;-78
2022/07/09 07:47:38;;;;;;;;;;;;;;;23.29;44.91;100188.50;4994933;28;19922;-73
2022/07/09 07:50:07;;;;;;;;;;;;;;;23.41;44.89;100188.00;4993602;28;19929;-73
2022/07/09 07:52:36;;;;;;;;;;;;;;;23.52;44.66;100184.88;4994719;28;20422;-72
2022/07/09 07:55:05;;;;;;;;;;;;;;;23.63;44.79;100188.72;4977271;28;19928;-72
2022/07/09 07:57:33;;;;;;;;;;;;;;;23.79;45.71;100187.09;4994494;28;19921;-73
2022/07/09 08:00:02;;;;;;;;;;;;;;;23.94;45.24;100183.75;4977058;28;20367;-72
2022/07/09 08:02:40;;;;;;;;;;;;;;;24.12;45.10;100195.09;4994029;28;19921;-72
2022/07/09 08:05:09;;;;;;;;;;;;;;;24.26;44.66;100195.28;4994187;28;19922;-73
2022/07/09 08:07:37;;;;;;;;;;;;;;;24.27;44.07;100196.13;4993650;28;19921;-72
2022/07/09 08:10:06;;;;;;;;;;;;;;;24.30;44.04;100182.94;4994418;28;19921;-72
2022/07/09 08:12:35;;;;;;;;;;;;;;;24.31;43.86;100188.06;4993811;28;19922;-72
2022/07/09 08:15:03;;;;;;;;;;;;;;;24.29;43.97;100183.84;4994487;28;20422;-73
2022/07/09 08:17:32;;;;;;;;;;;;;;;24.31;44.07;100182.00;4994152;28;19922;-75
2022/07/09 08:20:02;;;;;;;;;;;;;;;24.32;44.08;100178.47;4994230;28;19926;-77
2022/07/09 08:22:31;;;;;;;;;;;;;;;24.29;44.08;100178.63;4994335;28;19925;-77
2022/07/09 08:24:59;;;;;;;;;;;;;;;24.19;43.91;100178.22;4994468;28;20334;-73
2022/07/09 08:27:28;;;;;;;;;;;;;;;24.24;43.84;100170.16;4994141;28;19928;-76
2022/07/09 08:29:56;;;;;;;;;;;;;;;24.31;44.05;100182.00;4995767;28;20000;-76
2022/07/09 08:32:25;;;;;;;;;;;;;;;24.29;43.57;100169.03;4997724;28;20279;-74
2022/07/09 08:34:53;;;;;;;;;;;;;;;24.21;43.08;100165.13;4997705;28;19925;-73
2022/07/09 08:37:23;;;;;;;;;;;;;;;24.26;43.06;100163.13;4997884;28;20314;-78
2022/07/09 08:39:52;;;;;;;;;;;;;;;24.23;43.06;100147.63;4997833;28;19922;-73
2022/07/09 08:42:20;;;;;;;;;;;;;;;24.25;43.01;100149.25;4998182;28;19954;-75
2022/07/09 08:44:49;;;;;;;;;;;;;;;24.22;42.81;100156.38;4998051;28;19976;-77
2022/07/09 08:47:17;;;;;;;;;;;;;;;24.32;42.68;100148.03;4997455;28;19964;-72
2022/07/09 08:49:47;;;;;;;;;;;;;;;24.55;42.63;100160.75;4997734;28;19926;-75
2022/07/09 08:52:16;;;;;;;;;;;;;;;24.66;41.73;100160.22;4997896;28;19921;-73
2022/07/09 08:54:47;;;;;;;;;;;;;;;24.70;41.28;100159.16;4997415;28;19928;-75
2022/07/09 08:57:15;;;;;;;;;;;;;;;24.78;40.54;100164.88;4997329;28;19922;-74
2022/07/09 08:59:43;;;;;;;;;;;;;;;24.74;40.11;100160.66;4980097;28;19921;-73
2022/07/09 09:02:13;;;;;;;;;;;;;;;24.86;39.84;100162.69;4997224;28;19921;-73
2022/07/09 09:04:42;;;;;;;;;;;;;;;25.16;40.11;100162.88;4997210;28;19972;-75
2022/07/09 09:07:15;;;;;;;;;;;;;;;25.33;39.36;100164.59;4997913;28;19921;-78
2022/07/09 09:09:46;;;;;;;;;;;;;;;25.21;38.99;100174.78;4997300;28;19921;-78
2022/07/09 09:12:14;;;;;;;;;;;;;;;25.29;39.06;100159.50;4997206;28;20417;-74
2022/07/09 09:14:49;;;;;;;;;;;;;;;25.48;38.99;100154.19;4997102;28;19921;-78
2022/07/09 09:17:18;;;;;;;;;;;;;;;25.59;39.12;100157.06;4997202;28;20012;-75
2022/07/09 09:19:46;;;;;;;;;;;;;;;25.67;38.46;100156.63;4997488;28;20396;-75
2022/07/09 09:22:16;;;;;;;;;;;;;;;25.75;38.22;100159.66;4996880;28;19969;-74
2022/07/09 09:24:49;;;;;;;;;;;;;;;25.87;38.63;100154.59;4996783;28;19947;-75
2022/07/09 09:27:18;;;;;;;;;;;;;;;25.86;38.49;100154.69;4996894;28;19961;-72
2022/07/09 09:29:50;;;;;;;;;;;;;;;25.92;37.97;100160.41;4997097;28;19926;-72
2022/07/09 09:32:21;;;;;;;;;;;;;;;25.79;38.15;100158.56;4997560;28;19921;-72
2022/07/09 09:34:50;;;;;;;;;;;;;;;25.84;38.21;100151.31;4996742;28;19922;-72
2022/07/09 09:37:26;;;;;;;;;;;;;;;25.88;37.91;100147.59;4996586;28;19922;-73
2022/07/09 09:39:56;;;;;;;;;;;;;;;25.92;38.07;100144.72;4979715;28;19921;-72
2022/07/09 09:42:26;;;;;;;;;;;;;;;26.02;37.87;100142.44;4996330;28;20294;-74
2022/07/09 09:44:57;;;;;;;;;;;;;;;25.99;37.60;100139.16;4996929;28;19922;-72
2022/07/09 09:47:26;;;;;;;;;;;;;;;25.84;37.80;100130.41;4996422;28;19922;-74
2022/07/09 09:49:58;;;;;;;;;;;;;;;25.75;37.94;100125.66;4996337;28;19921;-74
2022/07/09 09:52:27;;;;;;;;;;;;;;;25.54;37.71;100132.06;4996726;28;20390;-75
2022/07/09 09:54:58;;;;;;;;;;;;;;;25.57;37.68;100122.31;4996343;28;19976;-73
2022/07/09 09:57:27;;;;;;;;;;;;;;;25.49;37.30;100126.25;4996590;28;20391;-73
2022/07/09 09:59:57;;;;;;;;;;;;;;;25.56;37.91;100125.84;4996515;28;19921;-72
2022/07/09 10:02:26;;;;;;;;;;;;;;;25.79;38.02;100127.19;4996150;28;19957;-74
2022/07/09 10:04:54;;;;;;;;;;;;;;;25.66;37.44;100113.94;4996177;28;19926;-72
2022/07/09 10:07:23;;;;;;;;;;;;;;;25.55;37.86;100124.16;4995991;28;20469;-72
2022/07/09 10:09:54;;;;;;;;;;;;;;;25.56;37.94;100111.91;4995984;28;19925;-75
2022/07/09 10:12:28;;;;;;;;;;;;;;;25.62;37.97;100114.19;4995852;28;19925;-76
2022/07/09 10:14:57;;;;;;;;;;;;;;;25.48;38.70;100116.75;4995986;28;19928;-72
2022/07/09 10:17:26;;;;;;;;;;;;;;;25.27;38.78;100114.31;4995930;28;19969;-74
2022/07/09 10:19:56;;;;;;;;;;;;;;;25.16;39.33;100119.28;4995733;28;20016;-73
2022/07/09 10:22:36;;;;;;;;;;;;;;;24.95;39.20;100122.19;4995804;28;19976;-75
2022/07/09 10:25:06;;;;;;;;;;;;;;;24.82;40.02;100111.53;4996023;28;20375;-72
2022/07/09 10:27:46;;;;;;;;;;;;;;;24.69;40.34;100115.66;4995981;28;20020;-76
2022/07/09 10:30:25;;;;;;;;;;;;;;;24.64;40.32;100110.69;4995897;28;19979;-72
2022/07/09 10:33:04;;;;;;;;;;;;;;;24.68;39.94;100108.78;4995862;28;19922;-72
2022/07/09 10:35:41;;;;;;;;;;;;;;;24.81;40.25;100109.84;4995603;28;20016;-75
2022/07/09 10:38:10;;;;;;;;;;;;;;;25.22;39.89;100111.09;4995711;28;19921;-72
2022/07/09 10:40:39;;;;;;;;;;;;;;;25.47;39.11;100110.66;4995809;28;19945;-72
2022/07/09 10:43:08;;;;;;;;;;;;;;;25.71;39.51;100096.22;4978274;28;19976;-77
2022/07/09 10:45:37;;;;;;;;;;;;;;;25.62;39.68;100099.38;4995333;28;19976;-76
2022/07/09 10:48:07;;;;;;;;;;;;;;;25.60;39.30;100092.53;4995301;28;19921;-73
2022/07/09 10:50:38;;;;;;;;;;;;;;;25.45;38.57;100090.75;4995204;28;19957;-72
2022/07/09 10:53:08;;;;;;;;;;;;;;;25.27;38.66;100088.19;4994476;28;19921;-73
2022/07/09 10:55:37;;;;;;;;;;;;;;;25.39;38.86;100081.44;4995265;28;20013;-75
2022/07/09 10:58:08;;;;;;;;;;;;;;;25.71;38.12;100074.47;4995105;28;20032;-71
2022/07/09 11:00:36;;;;;;;;;;;;;;;26.07;37.39;100072.34;4995198;28;19954;-72
2022/07/09 11:03:05;;;;;;;;;;;;;;;26.19;36.96;100074.28;4995398;28;19921;-73
2022/07/09 11:05:35;;;;;;;;;;;;;;;26.07;36.45;100069.75;4995258;28;19965;-72
2022/07/09 11:08:05;;;;;;;;;;;;;;;25.84;36.28;100078.06;4995306;28;20351;-72
2022/07/09 11:10:36;;;;;;;;;;;;;;;25.73;35.69;100077.81;4994934;28;19937;-72
2022/07/09 11:13:06;;;;;;;;;;;;;;;25.85;36.13;100069.28;4994682;28;19922;-74
2022/07/09 11:15:36;;;;;;;;;;;;;;;25.75;35.39;100062.88;4994994;28;20012;-72
2022/07/09 11:18:05;;;;;;;;;;;;;;;25.59;35.78;100072.53;4995233;28;19995;-74
2022/07/09 11:20:38;;;;;;;;;;;;;;;25.69;36.81;100060.63;4995090;28;20345;-74
2022/07/09 11:23:06;;;;;;;;;;;;;;;25.88;36.69;100061.28;4995142;28;19929;-72
2022/07/09 11:25:37;;;;;;;;;;;;;;;25.93;36.28;100065.31;4994652;28;19921;-72
2022/07/09 11:28:06;;;;;;;;;;;;;;;25.89;36.49;100057.72;4995120;28;19965;-75
2022/07/09 11:30:41;;;;;;;;;;;;;;;25.77;36.59;100066.28;4994767;28;19922;-72
2022/07/09 11:33:12;;;;;;;;;;;;;;;25.84;36.14;100062.38;4994588;28;19926;-74
2022/07/09 11:35:44;;;;;;;;;;;;;;;26.02;35.48;100056.06;4977549;28;19922;-72
2022/07/09 11:38:13;;;;;;;;;;;;;;;26.19;34.95;100037.66;4977507;28;19932;-72
2022/07/09 11:40:43;;;;;;;;;;;;;;;26.39;34.64;100034.69;4994489;28;19972;-73
2022/07/09 11:43:15;;;;;;;;;;;;;;;26.54;35.25;100033.75;4995253;28;19921;-75
2022/07/09 11:45:52;;;;;;;;;;;;;;;26.58;33.98;100024.81;4994946;28;19921;-75
2022/07/09 11:48:21;;;;;;;;;;;;;;;26.63;33.16;100016.66;4994868;28;19984;-73
2022/07/09 11:50:49;;;;;;;;;;;;;;;26.54;33.31;100015.44;4977366;28;19922;-72
2022/07/09 11:53:22;;;;;;;;;;;;;;;26.70;33.36;100014.50;4994491;28;20354;-75
2022/07/09 11:56:01;;;;;;;;;;;;;;;26.89;34.00;100008.06;4994417;28;20375;-76
2022/07/09 11:58:31;;;;;;;;;;;;;;;27.06;34.64;100009.63;4977402;28;19957;-77
2022/07/09 12:01:00;;;;;;;;;;;;;;;26.79;34.40;100006.09;4994592;28;19922;-78
2022/07/09 12:03:30;;;;;;;;;;;;;;;26.56;34.16;100000.44;4994358;28;19925;-74
2022/07/09 12:05:59;;;;;;;;;;;;;;;26.34;34.09;100005.34;4997518;28;19929;-74
2022/07/09 12:08:29;;;;;;;;;;;;;;;26.08;34.01;100005.16;4981059;28;20422;-72
2022/07/09 12:10:58;;;;;;;;;;;;;;;25.83;34.49;100003.13;4998312;28;19968;-78
2022/07/09 12:13:26;;;;;;;;;;;;;;;25.64;34.63;99997.28;4998155;28;19969;-75
2022/07/09 12:15:56;;;;;;;;;;;;;;;25.66;35.32;99996.25;4998683;28;20311;-74
2022/07/09 12:18:25;;;;;;;;;;;;;;;25.57;35.10;99993.34;4998143;28;19921;-72
2022/07/09 12:20:54;;;;;;;;;;;;;;;25.70;34.41;99971.63;4997966;28;19992;-73
2022/07/09 12:23:22;;;;;;;;;;;;;;;25.96;34.50;99978.78;4997992;28;19922;-74
2022/07/09 12:25:50;;;;;;;;;;;;;;;26.08;34.24;99972.00;4998101;28;19925;-71
2022/07/09 12:28:19;;;;;;;;;;;;;;;26.08;33.61;99966.75;4998211;28;19922;-75
2022/07/09 12:30:49;;;;;;;;;;;;;;;26.00;34.13;99968.97;4997797;28;20430;-75
2022/07/09 12:33:19;;;;;;;;;;;;;;;25.72;34.17;99963.69;4997760;28;19929;-73
2022/07/09 12:35:48;;;;;;;;;;;;;;;25.58;34.50;99961.03;4998074;28;19968;-74
2022/07/09 12:38:16;;;;;;;;;;;;;;;25.86;35.33;99961.13;4997666;28;19922;-75
2022/07/09 12:40:44;;;;;;;;;;;;;;;26.29;35.28;99955.03;4997520;28;19922;-72
2022/07/09 12:43:13;;;;;;;;;;;;;;;26.61;35.14;99953.88;4997934;28;19926;-77
2022/07/09 12:45:42;;;;;;;;;;;;;;;26.90;35.12;99941.59;4997981;28;19922;-77
2022/07/09 12:48:10;;;;;;;;;;;;;;;27.22;35.40;99937.75;4997628;28;19976;-74
2022/07/09 12:50:40;;;;;;;;;;;;;;;27.36;34.31;99931.59;4997463;28;20020;-71
2022/07/09 12:53:09;;;;;;;;;;;;;;;27.22;33.16;99931.69;4997674;28;20394;-72
2022/07/09 12:55:37;;;;;;;;;;;;;;;27.32;33.23;99927.53;4997439;28;19925;-74
2022/07/09 12:58:27;;;;;;;;;;;;;;;27.23;33.19;99928.13;4980283;28;19922;-74
2022/07/09 13:00:56;;;;;;;;;;;;;;;27.16;33.46;99926.84;4997262;28;19976;-73
2022/07/09 13:03:24;;;;;;;;;;;;;;;27.10;32.91;99922.84;4997261;28;19929;-73
2022/07/09 13:05:54;;;;;;;;;;;;;;;27.14;32.71;99919.06;4997558;28;20368;-75
2022/07/09 13:08:23;;;;;;;;;;;;;;;27.36;34.73;99913.25;4997219;28;19937;-72
2022/07/09 13:10:51;;;;;;;;;;;;;;;27.40;33.20;99914.78;4979814;28;19948;-76
2022/07/09 13:13:20;;;;;;;;;;;;;;;27.25;32.35;99908.75;4996859;28;19925;-74
2022/07/09 13:15:48;;;;;;;;;;;;;;;27.05;32.93;99918.81;4996631;28;19951;-72
2022/07/09 13:18:17;;;;;;;;;;;;;;;26.80;33.16;99918.72;4996675;28;19926;-72
2022/07/09 13:20:46;;;;;;;;;;;;;;;26.60;33.21;99910.31;4996823;28;19922;-77
2022/07/09 13:23:16;;;;;;;;;;;;;;;26.45;33.89;99913.03;4996929;28;19926;-72
2022/07/09 13:25:45;;;;;;;;;;;;;;;26.51;34.26;99910.84;4996860;28;19972;-75
2022/07/09 13:28:13;;;;;;;;;;;;;;;26.67;34.35;99902.91;4979666;28;19968;-77
2022/07/09 13:30:42;;;;;;;;;;;;;;;26.71;33.94;99898.28;4997109;28;20268;-77
2022/07/09 13:33:11;;;;;;;;;;;;;;;26.77;33.58;99892.72;4996945;28;19928;-71
2022/07/09 13:35:39;;;;;;;;;;;;;;;26.78;33.87;99894.41;4996676;28;19922;-77
2022/07/09 13:38:08;;;;;;;;;;;;;;;26.72;34.65;99894.75;4996909;28;19922;-75
2022/07/09 13:40:38;;;;;;;;;;;;;;;26.55;35.13;99883.56;4996577;28;19928;-76
2022/07/09 13:43:06;;;;;;;;;;;;;;;26.46;35.19;99894.63;4996496;28;19989;-72
2022/07/09 13:45:35;;;;;;;;;;;;;;;26.35;35.26;99886.56;4996535;28;19925;-76
2022/07/09 13:48:03;;;;;;;;;;;;;;;26.21;34.34;99894.44;4996432;28;19922;-76
2022/07/09 13:50:32;;;;;;;;;;;;;;;26.18;33.91;99888.56;4996726;28;19976;-77
2022/07/09 13:53:01;;;;;;;;;;;;;;;26.25;33.31;99876.78;4996751;28;19929;-74
2022/07/09 13:55:30;;;;;;;;;;;;;;;26.41;33.25;99875.75;4996276;28;19922;-78
2022/07/09 13:58:01;;;;;;;;;;;;;;;26.50;32.87;99864.69;4978938;28;19921;-77
2022/07/09 14:00:29;;;;;;;;;;;;;;;26.50;31.69;99863.84;4996281;28;20367;-77
2022/07/09 14:02:58;;;;;;;;;;;;;;;26.45;31.40;99869.38;4996247;28;19925;-71
2022/07/09 14:05:26;;;;;;;;;;;;;;;26.49;31.54;99856.94;4996072;28;19926;-74
2022/07/09 14:07:55;;;;;;;;;;;;;;;26.48;31.25;99856.09;4996538;28;19961;-74
2022/07/09 14:10:24;;;;;;;;;;;;;;;26.47;30.76;99848.31;4996332;28;19922;-75
2022/07/09 14:12:52;;;;;;;;;;;;;;;26.51;30.37;99850.63;4975210;28;19922;-73
2022/07/09 14:15:23;;;;;;;;;;;;;;;26.51;30.21;99849.81;4976527;28;19922;-77
2022/07/09 14:17:52;;;;;;;;;;;;;;;26.48;30.13;99850.00;4976856;28;19945;-72
2022/07/09 14:20:21;;;;;;;;;;;;;;;26.38;30.57;99841.03;4976298;28;20383;-74
2022/07/09 14:22:49;;;;;;;;;;;;;;;26.50;31.75;99838.50;4975498;28;20328;-72
2022/07/09 14:25:18;;;;;;;;;;;;;;;26.63;31.56;99829.84;4976548;28;19922;-72
2022/07/09 14:27:46;;;;;;;;;;;;;;;26.79;32.43;99827.97;4975307;28;19922;-71
2022/07/09 14:30:15;;;;;;;;;;;;;;;26.67;31.10;99819.09;4976604;28;20363;-75
2022/07/09 14:32:44;;;;;;;;;;;;;;;26.57;31.02;99824.06;4976526;28;20331;-75
2022/07/09 14:35:13;;;;;;;;;;;;;;;26.65;31.50;99814.88;4976448;28;20016;-71
2022/07/09 14:37:41;;;;;;;;;;;;;;;26.63;31.36;99808.91;4976519;28;19926;-72
2022/07/09 14:40:10;;;;;;;;;;;;;;;26.50;30.73;99820.16;4976354;28;20331;-74
2022/07/09 14:42:40;;;;;;;;;;;;;;;26.44;30.65;99812.69;4975972;28;19929;-72
2022/07/09 14:45:09;;;;;;;;;;;;;;;26.49;30.63;99810.63;4976053;28;19922;-73
2022/07/09 14:47:39;;;;;;;;;;;;;;;26.49;30.76;99808.00;4975011;28;19925;-72
2022/07/09 14:50:09;;;;;;;;;;;;;;;26.52;30.77;99805.19;4976347;28;20008;-77
2022/07/09 14:52:38;;;;;;;;;;;;;;;26.45;30.76;99798.66;4975057;28;20372;-73
2022/07/09 14:55:07;;;;;;;;;;;;;;;26.27;30.56;99791.16;4975760;28;19922;-76
2022/07/09 14:57:36;;;;;;;;;;;;;;;26.20;30.50;99795.91;4975806;28;19932;-72
2022/07/09 15:00:05;;;;;;;;;;;;;;;26.30;31.57;99789.16;4975913;28;19921;-76
2022/07/09 15:02:33;;;;;;;;;;;;;;;26.26;31.28;99779.00;4975641;28;20387;-74
2022/07/09 15:05:02;;;;;;;;;;;;;;;26.29;31.18;99774.41;4975946;28;20372;-72
2022/07/09 15:07:32;;;;;;;;;;;;;;;26.33;31.33;99777.66;4976226;28;20280;-71
2022/07/09 15:10:02;;;;;;;;;;;;;;;26.30;31.79;99778.69;4975546;28;19922;-75
2022/07/09 15:12:30;;;;;;;;;;;;;;;26.26;31.98;99774.59;4983926;28;19926;-74
2022/07/09 15:14:59;;;;;;;;;;;;;;;26.35;32.11;99766.16;4994899;28;19921;-74
2022/07/09 15:17:27;;;;;;;;;;;;;;;26.37;32.43;99763.47;4995231;28;19928;-72
2022/07/09 15:19:56;;;;;;;;;;;;;;;26.36;32.13;99762.63;4994812;28;19945;-73
2022/07/09 15:22:25;;;;;;;;;;;;;;;26.33;31.87;99749.72;4994695;28;20323;-71
2022/07/09 15:24:55;;;;;;;;;;;;;;;26.17;31.40;99746.41;4994791;28;20363;-74
2022/07/09 15:27:23;;;;;;;;;;;;;;;26.08;31.72;99741.72;4995079;28;19921;-73
2022/07/09 15:29:52;;;;;;;;;;;;;;;26.03;31.97;99738.56;4994624;28;19938;-73
2022/07/09 15:32:20;;;;;;;;;;;;;;;25.93;32.02;99742.69;4995031;28;19921;-73
2022/07/09 15:34:49;;;;;;;;;;;;;;;25.93;31.97;99737.44;4994953;28;19929;-74
2022/07/09 15:37:19;;;;;;;;;;;;;;;25.94;32.65;99733.88;4994645;28;19928;-72
2022/07/09 15:39:47;;;;;;;;;;;;;;;26.01;32.51;99729.94;4994133;28;19922;-73
2022/07/09 15:42:18;;;;;;;;;;;;;;;26.00;32.62;99733.50;4994649;28;19961;-75
2022/07/09 15:44:46;;;;;;;;;;;;;;;25.94;32.63;99731.25;4994629;28;20024;-73
2022/07/09 15:47:14;;;;;;;;;;;;;;;25.94;32.57;99736.50;4994758;28;19980;-74
2022/07/09 15:49:43;;;;;;;;;;;;;;;25.94;32.53;99736.50;4994511;28;20008;-72
2022/07/09 15:52:11;;;;;;;;;;;;;;;25.99;32.76;99726.59;4994668;28;20324;-72
2022/07/09 15:54:40;;;;;;;;;;;;;;;25.99;32.82;99736.22;4994462;28;19921;-73
2022/07/09 15:57:08;;;;;;;;;;;;;;;25.95;32.40;99727.72;4994410;28;19922;-74
2022/07/09 15:59:38;;;;;;;;;;;;;;;25.94;32.63;99728.66;4994450;28;19980;-73
2022/07/09 16:02:07;;;;;;;;;;;;;;;25.93;32.43;99732.22;4994937;28;19996;-74
2022/07/09 16:04:36;;;;;;;;;;;;;;;25.87;32.37;99716.88;4994431;28;19976;-74
2022/07/09 16:07:04;;;;;;;;;;;;;;;25.87;32.71;99719.50;4994960;28;20304;-75
2022/07/09 16:09:33;;;;;;;;;;;;;;;25.77;32.40;99723.66;4977285;28;19922;-76
2022/07/09 16:14:41;;;;;;;;;;;;;;;25.79;32.87;99719.16;4994228;28;20013;-75
2022/07/09 16:17:09;;;;;;;;;;;;;;;25.74;32.63;99716.00;4994327;28;19921;-76
2022/07/09 16:19:38;;;;;;;;;;;;;;;25.67;32.87;99712.09;4994229;28;19921;-73
2022/07/09 16:22:06;;;;;;;;;;;;;;;25.64;32.75;99717.50;4994111;28;20375;-76
2022/07/09 16:24:35;;;;;;;;;;;;;;;25.62;32.85;99711.53;4994247;28;20371;-74
2022/07/09 16:27:03;;;;;;;;;;;;;;;25.61;33.31;99715.91;4994558;28;20025;-72
2022/07/09 16:29:32;;;;;;;;;;;;;;;25.60;32.73;99724.66;4994202;28;20020;-76
2022/07/09 16:32:02;;;;;;;;;;;;;;;25.58;32.66;99717.88;4994254;28;19928;-77
2022/07/09 16:34:31;;;;;;;;;;;;;;;25.52;32.57;99720.84;4994173;28;19922;-76
2022/07/09 16:37:00;;;;;;;;;;;;;;;25.52;33.17;99720.84;4994343;28;20363;-74
2022/07/09 16:39:28;;;;;;;;;;;;;;;25.50;33.42;99726.19;4994537;28;19922;-77
2022/07/09 16:41:57;;;;;;;;;;;;;;;25.47;33.32;99730.75;4994581;28;19925;-78
2022/07/09 16:44:32;;;;;;;;;;;;;;;25.45;33.38;99724.78;4994421;28;19972;-75
2022/07/09 16:47:02;;;;;;;;;;;;;;;25.42;33.62;99725.78;4994235;28;19922;-71
2022/07/09 16:49:30;;;;;;;;;;;;;;;25.37;34.17;99732.19;4994412;28;19922;-71
2022/07/09 16:52:19;;;;;;;;;;;;;;;25.24;33.80;99730.31;4995739;28;19922;-72
2022/07/09 16:54:47;;;;;;;;;;;;;;;25.21;34.02;99730.53;4997823;28;19925;-71
2022/07/09 16:57:16;;;;;;;;;;;;;;;25.19;34.42;99729.75;4997715;28;19961;-71
2022/07/09 16:59:44;;;;;;;;;;;;;;;25.09;34.18;99727.81;4997374;28;19922;-71
2022/07/09 17:02:34;;;;;;;;;;;;;;;25.01;34.21;99733.47;4997645;28;20355;-72
2022/07/09 17:05:03;;;;;;;;;;;;;;;24.96;34.61;99732.91;4997218;28;19928;-78
2022/07/09 17:07:32;;;;;;;;;;;;;;;24.96;34.83;99727.69;4997314;28;19968;-77
2022/07/09 17:10:00;;;;;;;;;;;;;;;24.92;35.26;99727.94;4979867;28;19972;-72
2022/07/09 17:12:29;;;;;;;;;;;;;;;24.87;35.24;99728.22;4997103;28;19945;-72
2022/07/09 17:14:58;;;;;;;;;;;;;;;24.82;35.43;99725.03;4997291;28;19964;-77
2022/07/09 17:17:27;;;;;;;;;;;;;;;24.85;35.64;99724.88;4997329;28;19921;-72
2022/07/09 17:19:57;;;;;;;;;;;;;;;24.80;35.78;99724.28;4997049;28;19976;-72
2022/07/09 17:22:26;;;;;;;;;;;;;;;24.68;35.96;99722.34;4996882;28;19965;-78
2022/07/09 17:24:54;;;;;;;;;;;;;;;24.64;36.45;99726.09;4996935;28;19973;-72
2022/07/09 17:27:22;;;;;;;;;;;;;;;24.60;36.39;99729.78;4996843;28;19928;-77
2022/07/09 17:29:51;;;;;;;;;;;;;;;24.51;36.75;99730.31;4996926;28;20012;-78
2022/07/09 17:32:21;;;;;;;;;;;;;;;24.44;37.11;99734.19;4997065;28;20307;-78
2022/07/09 17:34:50;;;;;;;;;;;;;;;24.43;37.11;99727.28;4997063;28;20020;-77
2022/07/09 17:37:22;;;;;;;;;;;;;;;24.42;37.29;99731.69;4997053;28;20367;-72
2022/07/09 17:39:51;;;;;;;;;;;;;;;24.38;37.21;99724.09;4996953;28;20012;-73
2022/07/09 17:42:20;;;;;;;;;;;;;;;24.38;37.13;99737.97;4996499;28;20434;-77
2022/07/09 17:44:48;;;;;;;;;;;;;;;24.30;37.08;99734.13;4996474;28;20012;-71
2022/07/09 17:47:16;;;;;;;;;;;;;;;24.26;37.25;99730.03;4996476;28;19929;-71
2022/07/09 17:49:48;;;;;;;;;;;;;;;24.21;37.48;99734.66;4996718;28;19925;-71
2022/07/09 17:52:16;;;;;;;;;;;;;;;24.16;37.69;99734.06;4996715;28;19968;-72
2022/07/09 17:54:47;;;;;;;;;;;;;;;24.11;37.75;99733.47;4978951;28;19954;-76
2022/07/09 17:57:15;;;;;;;;;;;;;;;24.07;38.14;99739.78;4996521;28;19964;-77
2022/07/09 17:59:44;;;;;;;;;;;;;;;24.06;38.32;99743.28;4996579;28;19974;-77
2022/07/09 18:02:13;;;;;;;;;;;;;;;24.04;38.61;99745.13;4995251;28;19958;-72
2022/07/09 18:04:41;;;;;;;;;;;;;;;24.02;38.65;99742.59;4996242;28;20368;-71
2022/07/09 18:07:10;;;;;;;;;;;;;;;24.00;38.96;99742.69;4978918;28;19926;-72
2022/07/09 18:09:39;;;;;;;;;;;;;;;23.95;39.56;99741.25;4995978;28;20371;-72
2022/07/09 18:12:10;;;;;;;;;;;;;;;23.87;39.49;99739.03;4995897;28;19933;-77
2022/07/09 18:14:39;;;;;;;;;;;;;;;23.83;39.98;99747.97;4995972;28;19921;-73
2022/07/09 18:17:07;;;;;;;;;;;;;;;23.81;40.21;99748.97;4996189;28;20411;-77
2022/07/09 18:19:35;;;;;;;;;;;;;;;23.77;40.69;99747.47;4995877;28;19929;-76
2022/07/09 18:22:04;;;;;;;;;;;;;;;23.66;41.30;99750.63;4996197;28;19922;-75
2022/07/09 18:24:32;;;;;;;;;;;;;;;23.63;41.94;99760.38;4995735;28;20455;-71
2022/07/09 18:27:01;;;;;;;;;;;;;;;23.57;41.53;99761.53;4978681;28;19922;-77
2022/07/09 18:29:30;;;;;;;;;;;;;;;23.55;41.47;99768.59;4996176;28;20012;-75
2022/07/09 18:31:59;;;;;;;;;;;;;;;23.50;41.58;99760.19;4995992;28;20016;-74
2022/07/09 18:34:28;;;;;;;;;;;;;;;23.51;41.58;99764.50;4995925;28;19988;-77
2022/07/09 18:36:56;;;;;;;;;;;;;;;23.49;41.60;99773.31;4995546;28;20363;-77
2022/07/09 18:39:25;;;;;;;;;;;;;;;23.42;42.11;99775.38;4995924;28;19929;-77
2022/07/09 18:41:53;;;;;;;;;;;;;;;23.40;42.25;99774.59;4995836;28;19921;-74
2022/07/09 18:44:22;;;;;;;;;;;;;;;23.34;42.04;99774.91;4995296;28;19968;-72
2022/07/09 18:46:52;;;;;;;;;;;;;;;23.31;41.94;99780.25;4995339;28;19922;-72
2022/07/09 18:49:20;;;;;;;;;;;;;;;23.29;41.92;99788.16;4995400;28;19922;-72
2022/07/09 18:51:50;;;;;;;;;;;;;;;23.25;41.86;99783.19;4995288;28;20343;-76
2022/07/09 18:54:19;;;;;;;;;;;;;;;23.25;42.13;99785.78;4995306;28;19922;-77
2022/07/09 18:56:48;;;;;;;;;;;;;;;23.24;42.13;99794.53;4977969;28;19922;-73
2022/07/09 18:59:17;;;;;;;;;;;;;;;23.20;42.10;99787.78;4995346;28;20363;-74
2022/07/09 19:01:52;;;;;;;;;;;;;;;23.20;43.11;99798.22;4995693;28;20252;-75
2022/07/09 19:04:22;;;;;;;;;;;;;;;23.04;43.96;99802.47;4995203;28;20384;-72
2022/07/09 19:06:50;;;;;;;;;;;;;;;22.84;44.87;99795.66;4994974;28;20367;-72
2022/07/09 19:09:19;;;;;;;;;;;;;;;22.56;46.49;99806.53;4995012;28;19925;-72
2022/07/09 19:11:47;;;;;;;;;;;;;;;22.38;48.05;99811.75;4994744;28;19947;-75
2022/07/09 19:14:15;;;;;;;;;;;;;;;22.15;49.68;99815.41;4994348;28;19921;-74
2022/07/09 19:16:43;;;;;;;;;;;;;;;22.06;50.47;99821.03;4995172;28;19922;-74
2022/07/09 19:19:13;;;;;;;;;;;;;;;21.98;51.11;99817.91;4994807;28;19945;-74
2022/07/09 19:21:43;;;;;;;;;;;;;;;21.83;51.93;99813.41;4994892;28;19922;-74
2022/07/09 19:24:13;;;;;;;;;;;;;;;21.68;52.58;99814.06;4994665;28;19922;-74
2022/07/09 19:26:42;;;;;;;;;;;;;;;21.58;53.25;99813.63;4994799;28;20009;-72
2022/07/09 19:29:11;;;;;;;;;;;;;;;21.52;53.63;99805.25;4995069;28;20001;-71
2022/07/09 19:34:19;;;;;;;;;;;;;;;21.33;54.16;99800.84;4994570;28;19984;-77
2022/07/09 19:36:47;;;;;;;;;;;;;;;21.29;54.44;99812.28;4994776;28;20347;-75
2022/07/09 19:39:16;;;;;;;;;;;;;;;21.27;54.45;99815.84;4994164;28;19926;-73
2022/07/09 19:41:44;;;;;;;;;;;;;;;21.31;54.65;99818.22;4994388;28;20008;-74
2022/07/09 19:44:13;;;;;;;;;;;;;;;21.29;54.52;99817.47;4977152;28;20291;-72
2022/07/09 19:46:42;;;;;;;;;;;;;;;21.23;55.20;99812.53;4994814;28;19973;-72
2022/07/09 19:49:11;;;;;;;;;;;;;;;21.15;55.50;99804.22;4994459;28;19928;-73
2022/07/09 19:51:41;;;;;;;;;;;;;;;21.19;55.63;99810.09;4995095;28;19926;-71
2022/07/09 19:54:09;;;;;;;;;;;;;;;21.17;55.66;99812.78;4995130;28;19930;-73
2022/07/09 19:56:40;;;;;;;;;;;;;;;21.13;55.75;99810.38;4994506;28;20383;-74
2022/07/09 19:59:09;;;;;;;;;;;;;;;21.09;55.95;99809.66;4994392;28;19976;-71
2022/07/09 20:01:38;;;;;;;;;;;;;;;21.03;56.51;99815.06;4994667;28;20354;-72
2022/07/09 20:04:06;;;;;;;;;;;;;;;21.02;56.44;99815.16;4994690;28;20380;-72
2022/07/09 20:06:36;;;;;;;;;;;;;;;21.00;56.51;99815.19;4994426;28;19953;-72
2022/07/09 20:09:06;;;;;;;;;;;;;;;20.99;56.82;99810.06;4977245;28;19944;-73
2022/07/09 20:11:35;;;;;;;;;;;;;;;20.97;56.88;99804.09;4994385;28;19922;-74